Time;durP1;ratioP1;P1;durP2;ratioP2;P2;SDS_P1;SDS_P2;PMS_P1;PMS_P2;Temp;Humidity;BMP_temperature;BMP_pressure;BME280_temperature;BME280_humidity;BME280_pressure;Samples;Min_cycle;Max_cycle;Signal;HPM_P1;HPM_P2
2021/04/06 00:02:08;;;;;;;8.18;1.13;;;0.10;92.40;;;;;;5032392;28;20201;-81
2021/04/06 00:04:41;;;;;;;2.50;0.80;;;0.10;99.90;;;;;;5033953;28;20288;-81
2021/04/06 00:07:14;;;;;;;1.10;0.60;;;0.10;99.90;;;;;;5046016;22;20217;-84
2021/04/06 00:09:45;;;;;;;2.83;0.85;;;0.10;1.00;;;;;;5050981;28;20651;-82
2021/04/06 00:12:15;;;;;;;22.75;1.80;;;0.00;1.00;;;;;;5063968;28;20240;-83
2021/04/06 00:14:43;;;;;;;2.33;0.85;;;0.00;1.00;;;;;;5063866;28;20685;-83
2021/04/06 00:17:12;;;;;;;3.40;0.77;;;0.00;1.00;;;;;;5064544;28;20265;-82
2021/04/06 00:19:43;;;;;;;6.63;2.08;;;0.00;99.90;;;;;;5064238;28;20173;-83
2021/04/06 00:22:15;;;;;;;1.83;1.45;;;-0.10;99.90;;;;;;5066558;28;20189;-81
2021/04/06 00:24:46;;;;;;;0.90;0.70;;;-0.10;1.00;;;;;;5065585;28;20189;-83
2021/04/06 00:27:17;;;;;;;4.40;1.35;;;-0.10;1.00;;;;;;5064964;28;20276;-83
2021/04/06 00:29:47;;;;;;;0.90;0.60;;;-0.10;1.00;;;;;;5046586;28;20203;-81
2021/04/06 00:32:17;;;;;;;5.28;0.95;;;-0.10;1.00;;;;;;5065815;28;20181;-83
2021/04/06 00:34:44;;;;;;;1.90;0.80;;;-0.10;99.90;;;;;;5068084;28;20205;-83
2021/04/06 00:37:15;;;;;;;1.42;0.95;;;-0.10;99.90;;;;;;5051875;28;20220;-83
2021/04/06 00:39:44;;;;;;;1.60;1.13;;;-0.20;99.90;;;;;;5069632;28;20180;-83
2021/04/06 00:42:14;;;;;;;1.77;1.15;;;-0.20;99.90;;;;;;5052311;28;20243;-83
2021/04/06 00:44:46;;;;;;;1.80;0.88;;;-0.20;1.00;;;;;;5068918;28;20181;-83
2021/04/06 00:47:15;;;;;;;1.70;1.30;;;-0.20;99.90;;;;;;5069328;28;20231;-82
2021/04/06 00:49:43;;;;;;;1.52;0.68;;;-0.20;49.40;;;;;;5070474;28;20208;-82
2021/04/06 00:52:14;;;;;;;1.88;1.30;;;-0.20;99.90;;;;;;5052864;28;20219;-81
2021/04/06 00:54:41;;;;;;;4.18;1.40;;;-0.20;1.00;;;;;;5073905;28;20200;-82
2021/04/06 00:57:13;;;;;;;2.45;1.30;;;-0.20;1.00;;;;;;5057773;28;20225;-82
2021/04/06 01:00:16;;;;;;;0.93;0.70;;;-0.20;1.00;;;;;;5076813;28;20253;-83
2021/04/06 01:03:03;;;;;;;1.98;0.80;;;-0.20;1.00;;;;;;5074379;28;20184;-82
2021/04/06 01:05:32;;;;;;;6.65;0.93;;;-0.20;1.00;;;;;;5051251;28;20232;-82
2021/04/06 01:08:03;;;;;;;6.70;1.50;;;-0.20;1.00;;;;;;5066809;28;20593;-83
2021/04/06 01:10:32;;;;;;;2.10;1.88;;;-0.30;1.00;;;;;;5067325;28;20173;-83
2021/04/06 01:13:02;;;;;;;3.30;1.48;;;-0.30;99.90;;;;;;5066806;28;20200;-82
2021/04/06 01:15:29;;;;;;;1.55;1.45;;;-0.30;99.90;;;;;;5059043;28;20619;-81
2021/04/06 01:17:56;;;;;;;1.10;0.82;;;-0.30;7.40;;;;;;5036854;28;20295;-82
2021/04/06 01:20:26;;;;;;;1.70;0.82;;;-0.30;1.00;;;;;;5067814;28;20227;-83
2021/04/06 01:22:56;;;;;;;2.17;1.00;;;-0.30;99.90;;;;;;5073690;28;20272;-81
2021/04/06 01:25:29;;;;;;;2.88;1.25;;;-0.30;1.00;;;;;;5072811;28;20184;-84
2021/04/06 01:28:05;;;;;;;0.90;0.75;;;-0.40;1.00;;;;;;5074805;28;20238;-83
2021/04/06 01:30:45;;;;;;;1.98;1.00;;;-0.40;1.00;;;;;;5056377;28;20211;-83
2021/04/06 01:33:13;;;;;;;0.80;0.80;;;-0.30;1.00;;;;;;5070487;28;20173;-81
2021/04/06 01:35:44;;;;;;;3.67;1.83;;;-0.40;99.90;;;;;;5050209;28;20189;-83
2021/04/06 01:38:13;;;;;;;2.08;1.33;;;-0.40;1.00;;;;;;5067668;28;20209;-83
2021/04/06 01:40:42;;;;;;;4.50;1.42;;;-0.40;99.90;;;;;;5067514;28;20193;-82
2021/04/06 01:43:11;;;;;;;2.03;0.90;;;-0.40;1.00;;;;;;5068699;28;20189;-83
2021/04/06 01:45:45;;;;;;;1.95;1.25;;;-0.40;99.90;;;;;;5049054;28;20207;-83
2021/04/06 01:48:13;;;;;;;5.30;1.65;;;-0.40;1.00;;;;;;5067234;28;20205;-83
2021/04/06 01:50:41;;;;;;;1.50;1.10;;;-0.50;99.90;;;;;;5066756;28;20188;-82
2021/04/06 01:53:09;;;;;;;1.20;1.10;;;-0.50;99.90;;;;;;5068338;28;20723;-82
2021/04/06 01:55:39;;;;;;;2.95;0.85;;;-0.50;99.90;;;;;;5067918;28;20185;-83
2021/04/06 01:58:09;;;;;;;4.93;1.05;;;-0.50;99.90;;;;;;5050458;28;20231;-82
2021/04/06 02:00:52;;;;;;;1.30;1.10;;;-0.50;1.00;;;;;;5048696;28;20207;-83
2021/04/06 02:03:19;;;;;;;1.17;0.90;;;-0.50;1.00;;;;;;5049028;28;20180;-82
2021/04/06 02:05:47;;;;;;;1.33;1.23;;;-0.50;99.90;;;;;;5049610;28;20180;-81
2021/04/06 02:08:18;;;;;;;1.30;1.00;;;-0.50;99.90;;;;;;5067083;28;20737;-83
2021/04/06 02:10:46;;;;;;;3.42;1.15;;;-0.50;1.00;;;;;;5066780;28;20177;-83
2021/04/06 02:13:16;;;;;;;2.92;1.75;;;-0.60;10.60;;;;;;5067284;28;20173;-82
2021/04/06 02:15:54;;;;;;;2.78;1.10;;;-0.50;99.90;;;;;;5066325;28;20204;-83
2021/04/06 02:18:22;;;;;;;5.13;1.38;;;-0.50;99.90;;;;;;5066680;28;20212;-81
2021/04/06 02:20:54;;;;;;;2.47;2.05;;;-0.50;99.90;;;;;;5048948;28;20196;-83
2021/04/06 02:23:22;;;;;;;1.25;0.95;;;-0.50;99.90;;;;;;5067120;28;20207;-83
2021/04/06 02:25:51;;;;;;;1.35;1.13;;;-0.50;99.90;;;;;;5067135;28;20208;-82
2021/04/06 02:28:22;;;;;;;1.10;1.00;;;-0.50;99.90;;;;;;5066677;28;20691;-82
2021/04/06 02:30:54;;;;;;;2.47;1.35;;;-0.50;99.90;;;;;;5066262;28;20197;-80
2021/04/06 02:33:26;;;;;;;1.63;1.35;;;-0.50;99.90;;;;;;5064766;28;20178;-82
2021/04/06 02:35:58;;;;;;;2.35;1.25;;;-0.60;99.90;;;;;;5047711;28;20282;-83
2021/04/06 02:38:27;;;;;;;3.47;2.40;;;-0.60;99.90;;;;;;5067100;28;20219;-83
2021/04/06 02:41:13;;;;;;;3.42;1.13;;;-0.50;99.90;;;;;;5066547;28;20203;-83
2021/04/06 02:43:47;;;;;;;6.63;1.85;;;-0.60;99.90;;;;;;5050789;28;20196;-83
2021/04/06 02:46:18;;;;;;;4.28;3.53;;;-0.60;99.90;;;;;;5069537;28;20235;-83
2021/04/06 02:48:51;;;;;;;4.70;1.15;;;-0.60;99.90;;;;;;5067411;28;20188;-81
2021/04/06 02:51:19;;;;;;;1.08;0.80;;;-0.60;99.90;;;;;;5049874;28;20188;-83
2021/04/06 02:53:48;;;;;;;10.82;2.78;;;-0.60;99.90;;;;;;5055179;28;20272;-83
2021/04/06 02:56:30;;;;;;;1.38;1.27;;;-0.60;99.90;;;;;;5076069;28;20169;-82
2021/04/06 02:59:13;;;;;;;6.07;2.05;;;-0.60;99.90;;;;;;5076044;28;20169;-82
2021/04/06 03:01:41;;;;;;;4.70;1.70;;;-0.60;99.90;;;;;;5076895;28;20184;-82
2021/04/06 03:04:20;;;;;;;3.38;2.08;;;-0.60;99.90;;;;;;5075970;28;20188;-80
2021/04/06 03:06:48;;;;;;;1.42;1.25;;;-0.60;99.90;;;;;;5071478;28;20276;-83
2021/04/06 03:09:15;;;;;;;3.05;2.08;;;-0.60;99.90;;;;;;5065317;28;20177;-82
2021/04/06 03:11:44;;;;;;;1.85;1.38;;;-0.70;99.90;;;;;;5065214;28;20165;-82
2021/04/06 03:14:13;;;;;;;1.55;1.45;;;-0.70;99.90;;;;;;5066028;28;20192;-81
2021/04/06 03:16:41;;;;;;;1.88;1.23;;;-0.70;99.90;;;;;;5066255;28;20253;-82
2021/04/06 03:19:09;;;;;;;1.58;0.90;;;-0.70;99.90;;;;;;5066063;28;20196;-81
2021/04/06 03:21:37;;;;;;;2.75;2.47;;;-0.80;99.90;;;;;;5047761;28;20213;-83
2021/04/06 03:24:05;;;;;;;3.03;1.75;;;-0.80;99.90;;;;;;5046164;28;20246;-81
2021/04/06 03:26:32;;;;;;;1.75;1.65;;;-0.80;99.90;;;;;;5065463;28;20173;-80
2021/04/06 03:29:01;;;;;;;5.53;1.00;;;-0.80;99.90;;;;;;5066662;28;20173;-83
2021/04/06 03:31:31;;;;;;;2.40;1.35;;;-0.80;99.90;;;;;;5068289;28;20165;-83
2021/04/06 03:34:00;;;;;;;2.22;1.92;;;-0.80;99.90;;;;;;5066704;28;20177;-82
2021/04/06 03:36:30;;;;;;;1.35;1.25;;;-0.80;99.90;;;;;;5065701;28;20203;-82
2021/04/06 03:39:05;;;;;;;5.68;2.55;;;-0.80;99.90;;;;;;5047623;28;20200;-81
2021/04/06 03:41:33;;;;;;;2.15;1.95;;;-0.90;99.90;;;;;;5048349;28;20204;-83
2021/04/06 03:44:05;;;;;;;2.05;1.35;;;-0.90;99.90;;;;;;5066194;28;20177;-83
2021/04/06 03:46:35;;;;;;;1.90;1.80;;;-0.90;99.90;;;;;;5048015;28;20197;-83
2021/04/06 03:49:16;;;;;;;3.00;1.85;;;-0.90;99.90;;;;;;5064625;28;20193;-83
2021/04/06 03:51:49;;;;;;;3.42;2.35;;;-0.80;99.90;;;;;;5046655;28;20196;-83
2021/04/06 03:54:36;;;;;;;2.85;1.20;;;-0.80;99.90;;;;;;5066269;28;20203;-83
2021/04/06 03:57:32;;;;;;;2.38;2.10;;;-0.80;99.90;;;;;;5066633;28;20213;-82
2021/04/06 04:00:06;;;;;;;2.30;1.98;;;-0.90;99.90;;;;;;5065373;28;20177;-83
2021/04/06 04:02:34;;;;;;;10.13;1.42;;;-0.90;99.90;;;;;;5061241;28;20198;-82
2021/04/06 04:05:04;;;;;;;5.82;2.08;;;-0.90;99.90;;;;;;5039428;28;20211;-79
2021/04/06 04:07:33;;;;;;;2.90;1.88;;;-0.90;99.90;;;;;;5059503;28;20225;-82
2021/04/06 04:10:00;;;;;;;1.63;1.33;;;-0.90;99.90;;;;;;5051088;28;20592;-81
2021/04/06 04:12:27;;;;;;;2.05;1.85;;;-0.90;99.90;;;;;;5054058;28;20185;-82
2021/04/06 04:14:57;;;;;;;4.15;2.60;;;-0.90;99.90;;;;;;5071483;28;20245;-83
2021/04/06 04:17:25;;;;;;;1.67;1.38;;;-0.90;99.90;;;;;;5070542;28;20215;-83
2021/04/06 04:19:53;;;;;;;4.95;1.83;;;-0.90;99.90;;;;;;5069678;28;20635;-82
2021/04/06 04:22:20;;;;;;;6.40;1.65;;;-1.00;99.90;;;;;;5069021;28;20201;-83
2021/04/06 04:24:48;;;;;;;1.98;1.65;;;-1.00;99.90;;;;;;5050739;28;20189;-81
2021/04/06 04:27:15;;;;;;;2.13;1.67;;;-1.00;99.90;;;;;;5069063;28;20235;-83
2021/04/06 04:29:42;;;;;;;3.65;2.75;;;-1.00;99.90;;;;;;5069877;28;20203;-83
2021/04/06 04:32:13;;;;;;;3.13;2.45;;;-1.00;99.90;;;;;;5067768;28;20196;-83
2021/04/06 04:34:41;;;;;;;6.68;1.55;;;-1.00;99.90;;;;;;5068349;28;20180;-82
2021/04/06 04:37:09;;;;;;;6.82;2.63;;;-1.10;99.90;;;;;;5068666;28;20227;-83
2021/04/06 04:39:36;;;;;;;1.77;1.58;;;-1.10;99.90;;;;;;5050846;28;20232;-82
2021/04/06 04:42:03;;;;;;;2.25;2.05;;;-1.10;99.90;;;;;;5067987;28;20756;-85
2021/04/06 04:44:31;;;;;;;2.60;1.85;;;-1.10;99.90;;;;;;5049974;28;20211;-82
2021/04/06 04:46:59;;;;;;;2.20;1.95;;;-1.00;99.90;;;;;;5067601;28;20236;-81
2021/04/06 04:49:26;;;;;;;2.08;1.55;;;-1.00;99.90;;;;;;5049297;28;20216;-80
2021/04/06 04:51:53;;;;;;;1.63;1.52;;;-0.90;99.90;;;;;;5067732;28;20271;-83
2021/04/06 04:54:22;;;;;;;2.55;2.35;;;-0.90;99.90;;;;;;5051103;28;20181;-79
2021/04/06 04:56:50;;;;;;;6.70;2.10;;;-0.90;99.90;;;;;;5051947;28;20228;-80
2021/04/06 04:59:17;;;;;;;3.42;1.55;;;-0.90;99.90;;;;;;5068408;28;20173;-81
2021/04/06 05:01:45;;;;;;;3.55;2.70;;;-0.80;99.90;;;;;;5068472;28;20213;-83
2021/04/06 05:04:13;;;;;;;1.60;1.50;;;-0.60;99.90;;;;;;5056733;28;20211;-84
2021/04/06 05:06:40;;;;;;;1.98;1.77;;;-0.10;99.90;;;;;;5075938;28;20192;-79
2021/04/06 05:09:08;;;;;;;8.02;1.95;;;0.50;99.90;;;;;;5074574;28;20181;-80
2021/04/06 05:11:36;;;;;;;1.90;1.63;;;1.00;99.90;;;;;;5051124;28;20183;-83
2021/04/06 05:14:04;;;;;;;2.05;1.45;;;1.20;99.90;;;;;;5067526;28;20204;-83
2021/04/06 05:16:32;;;;;;;1.83;1.65;;;0.80;99.90;;;;;;5048484;28;20208;-83
2021/04/06 05:18:59;;;;;;;10.63;2.75;;;0.80;99.90;;;;;;5065179;28;20263;-83
2021/04/06 05:21:26;;;;;;;2.30;1.83;;;0.80;99.90;;;;;;5064427;28;20208;-84
2021/04/06 05:23:53;;;;;;;5.15;2.08;;;0.40;99.90;;;;;;5066061;28;20173;-82
2021/04/06 05:26:21;;;;;;;5.20;2.72;;;0.20;99.90;;;;;;5067373;28;20177;-83
2021/04/06 05:28:49;;;;;;;2.47;1.75;;;0.10;99.90;;;;;;5068232;28;20240;-83
2021/04/06 05:31:16;;;;;;;3.78;1.70;;;0.00;99.90;;;;;;5066881;28;20173;-83
2021/04/06 05:33:44;;;;;;;7.72;1.60;;;0.00;99.90;;;;;;5068105;28;20173;-81
2021/04/06 05:36:11;;;;;;;2.42;1.63;;;0.10;99.90;;;;;;5070618;28;20200;-83
2021/04/06 05:38:38;;;;;;;4.60;1.63;;;0.10;99.90;;;;;;5068217;28;20228;-83
2021/04/06 05:41:07;;;;;;;4.03;1.20;;;0.10;99.90;;;;;;5071286;28;20256;-83
2021/04/06 05:43:36;;;;;;;3.50;1.70;;;0.10;99.90;;;;;;5071784;28;20209;-85
2021/04/06 05:46:06;;;;;;;2.40;2.20;;;0.10;99.90;;;;;;5073098;28;20184;-81
2021/04/06 05:48:35;;;;;;;2.70;2.40;;;0.20;99.90;;;;;;5054608;28;20217;-84
2021/04/06 05:51:03;;;;;;;2.75;2.00;;;0.10;99.90;;;;;;5050574;28;20255;-83
2021/04/06 05:53:30;;;;;;;8.00;2.40;;;0.20;99.90;;;;;;5047009;28;20188;-82
2021/04/06 05:55:59;;;;;;;2.50;1.67;;;0.20;99.90;;;;;;5029854;28;20199;-83
2021/04/06 05:58:26;;;;;;;4.07;2.30;;;0.30;99.90;;;;;;5047352;28;20677;-81
2021/04/06 06:00:54;;;;;;;2.50;2.03;;;0.40;99.90;;;;;;5027379;28;20195;-81
2021/04/06 06:03:22;;;;;;;2.42;2.22;;;0.30;99.90;;;;;;5046946;28;20192;-82
2021/04/06 06:05:49;;;;;;;2.50;1.73;;;0.40;99.90;;;;;;5047119;28;20192;-82
2021/04/06 06:08:18;;;;;;;3.10;1.83;;;0.50;99.90;;;;;;5070277;22;20251;-66
2021/04/06 06:10:45;;;;;;;4.65;1.63;;;0.60;99.90;;;;;;5052063;28;20181;-68
2021/04/06 06:13:20;;;;;;;3.25;2.83;;;0.80;99.90;;;;;;5051987;28;20173;-68
2021/04/06 06:16:12;;;;;;;7.28;3.55;;;0.90;99.90;;;;;;5034252;28;20282;-68
2021/04/06 06:18:59;;;;;;;3.83;2.38;;;1.00;99.90;;;;;;5031993;28;20177;-68
2021/04/06 06:21:45;;;;;;;4.03;1.75;;;1.20;99.90;;;;;;5032061;28;20204;-66
2021/04/06 06:24:22;;;;;;;2.13;1.92;;;1.20;99.90;;;;;;5032057;28;20170;-67
2021/04/06 06:26:49;;;;;;;3.15;2.55;;;1.20;99.90;;;;;;5013933;28;20216;-68
2021/04/06 06:29:37;;;;;;;6.93;2.38;;;1.30;99.90;;;;;;5031418;28;20174;-67
2021/04/06 06:32:19;;;;;;;3.92;2.00;;;1.40;99.90;;;;;;5030558;28;20186;-68
2021/04/06 06:34:48;;;;;;;3.08;2.28;;;1.40;99.90;;;;;;5031624;28;20174;-67
2021/04/06 06:37:24;;;;;;;3.38;1.92;;;1.50;99.90;;;;;;5031367;28;20209;-68
2021/04/06 06:40:03;;;;;;;5.65;2.92;;;1.50;99.90;;;;;;5013781;28;20275;-67
2021/04/06 06:42:32;;;;;;;3.35;1.95;;;1.60;99.90;;;;;;5031459;28;20197;-67
2021/04/06 06:45:01;;;;;;;2.88;2.08;;;1.50;99.90;;;;;;5032205;28;20193;-69
2021/04/06 06:47:31;;;;;;;4.60;1.85;;;1.60;99.90;;;;;;5031156;28;20211;-67
2021/04/06 06:50:10;;;;;;;4.20;2.33;;;1.70;99.90;;;;;;5031292;28;20185;-66
2021/04/06 06:52:38;;;;;;;2.28;1.75;;;2.00;99.90;;;;;;5031548;28;20223;-67
2021/04/06 06:55:24;;;;;;;2.38;1.77;;;2.10;99.90;;;;;;5031293;28;20261;-67
2021/04/06 06:58:02;;;;;;;4.10;3.15;;;2.30;99.90;;;;;;5013759;28;20312;-67
2021/04/06 07:00:29;;;;;;;12.82;3.58;;;2.40;99.90;;;;;;5032557;28;20184;-67
2021/04/06 07:02:56;;;;;;;5.47;2.28;;;2.50;99.90;;;;;;5033125;28;20220;-69
2021/04/06 07:05:25;;;;;;;6.75;1.77;;;2.60;99.90;;;;;;5014927;28;20193;-68
2021/04/06 07:08:03;;;;;;;1.98;1.77;;;2.80;99.90;;;;;;5031873;28;20295;-68
2021/04/06 07:10:36;;;;;;;6.97;2.17;;;3.00;99.90;;;;;;5031381;28;20169;-68
2021/04/06 07:13:11;;;;;;;5.05;4.63;;;3.10;99.90;;;;;;5031012;28;20170;-68
2021/04/06 07:15:44;;;;;;;2.05;1.80;;;2.90;99.90;;;;;;5011121;28;20220;-68
2021/04/06 07:18:14;;;;;;;3.80;2.35;;;3.20;99.90;;;;;;5011030;28;20269;-67
2021/04/06 07:20:45;;;;;;;3.55;2.55;;;3.20;99.90;;;;;;5010994;28;20557;-68
2021/04/06 07:23:16;;;;;;;4.10;3.58;;;2.90;99.90;;;;;;5010985;28;20830;-68
2021/04/06 07:25:45;;;;;;;6.68;2.75;;;2.60;99.90;;;;;;5010741;28;20546;-67
2021/04/06 07:28:16;;;;;;;2.95;2.17;;;2.70;99.90;;;;;;5010844;28;20570;-68
2021/04/06 07:30:45;;;;;;;6.68;2.30;;;3.10;99.90;;;;;;5011196;28;20575;-67
2021/04/06 07:33:14;;;;;;;3.63;1.98;;;3.30;99.90;;;;;;5011021;28;20748;-68
2021/04/06 07:35:43;;;;;;;3.10;2.20;;;3.50;99.90;;;;;;5011243;28;20192;-67
2021/04/06 07:38:10;;;;;;;4.55;2.15;;;3.70;99.90;;;;;;5010582;28;20218;-67
2021/04/06 07:40:38;;;;;;;4.85;2.75;;;3.60;99.90;;;;;;5010629;28;20186;-68
2021/04/06 07:43:06;;;;;;;3.63;2.20;;;3.80;99.90;;;;;;5012258;28;20684;-67
2021/04/06 07:45:40;;;;;;;5.40;3.17;;;3.90;99.90;;;;;;5014518;28;20175;-68
2021/04/06 07:48:10;;;;;;;2.85;2.10;;;3.80;99.90;;;;;;5014853;28;20740;-68
2021/04/06 07:50:41;;;;;;;6.47;2.40;;;3.80;99.90;;;;;;5014874;28;20225;-67
2021/04/06 07:53:26;;;;;;;2.47;1.80;;;4.00;99.90;;;;;;5014918;28;20546;-67
2021/04/06 07:55:55;;;;;;;5.97;2.00;;;3.80;99.90;;;;;;5015603;28;20639;-68
2021/04/06 07:58:47;;;;;;;3.58;2.15;;;3.70;99.90;;;;;;5015224;28;20214;-67
2021/04/06 08:01:17;;;;;;;5.55;2.95;;;3.60;99.90;;;;;;5015768;28;20266;-66
2021/04/06 08:04:04;;;;;;;2.38;2.17;;;3.50;99.90;;;;;;5015495;28;20217;-66
2021/04/06 08:06:44;;;;;;;4.25;2.25;;;3.40;99.90;;;;;;5015257;28;20731;-67
2021/04/06 08:09:42;;;;;;;4.95;2.00;;;3.60;99.90;;;;;;5015085;28;20194;-68
2021/04/06 08:12:12;;;;;;;5.25;2.50;;;3.50;99.90;;;;;;5015305;28;20170;-68
2021/04/06 08:14:41;;;;;;;6.78;2.78;;;3.50;99.90;;;;;;5015321;28;20190;-68
2021/04/06 08:17:47;;;;;;;2.42;1.88;;;3.60;99.90;;;;;;5015702;28;20695;-67
2021/04/06 08:20:37;;;;;;;4.93;1.92;;;3.70;99.90;;;;;;5015509;28;20543;-66
2021/04/06 08:23:07;;;;;;;5.20;2.50;;;3.40;99.90;;;;;;5010085;28;20253;-67
2021/04/06 08:25:43;;;;;;;4.43;1.40;;;3.40;99.90;;;;;;5015210;28;20171;-67
2021/04/06 08:28:44;;;;;;;4.00;2.75;;;3.50;99.90;;;;;;5015196;28;20202;-68
2021/04/06 08:31:34;;;;;;;7.32;3.00;;;4.00;99.90;;;;;;5004016;28;20540;-69
2021/04/06 08:34:29;;;;;;;2.15;1.95;;;4.60;99.90;;;;;;5014672;28;20182;-71
2021/04/06 08:37:08;;;;;;;2.90;2.55;;;5.10;99.90;;;;;;5015063;28;20264;-68
2021/04/06 08:39:36;;;;;;;6.43;3.67;;;5.50;99.90;;;;;;5014475;28;20220;-69
2021/04/06 08:42:06;;;;;;;8.40;2.20;;;5.70;99.90;;;;;;5013930;28;20260;-69
2021/04/06 08:44:36;;;;;;;9.50;3.63;;;5.70;99.90;;;;;;5015262;28;20667;-64
2021/04/06 08:47:04;;;;;;;4.45;2.75;;;5.40;99.90;;;;;;5014818;28;20261;-66
2021/04/06 08:49:40;;;;;;;6.82;2.25;;;5.20;99.90;;;;;;5024151;28;20178;-65
2021/04/06 08:52:12;;;;;;;2.78;2.05;;;4.80;99.90;;;;;;5035009;28;20174;-66
2021/04/06 08:54:39;;;;;;;4.82;2.42;;;4.40;99.90;;;;;;5033964;28;20241;-66
2021/04/06 08:57:10;;;;;;;4.80;2.75;;;4.20;99.90;;;;;;5035381;28;20205;-65
2021/04/06 08:59:39;;;;;;;8.63;2.67;;;4.00;99.90;;;;;;5034773;28;20182;-66
2021/04/06 09:02:10;;;;;;;9.70;3.50;;;4.10;99.90;;;;;;5034619;28;20582;-67
2021/04/06 09:04:38;;;;;;;5.00;2.75;;;4.30;99.90;;;;;;5034571;28;20662;-66
2021/04/06 09:07:16;;;;;;;3.63;2.88;;;4.40;99.90;;;;;;5035100;28;20686;-67
2021/04/06 09:09:43;;;;;;;8.38;3.33;;;4.40;99.90;;;;;;5034898;28;20192;-67
2021/04/06 09:12:13;;;;;;;3.40;2.47;;;4.30;99.90;;;;;;5034731;28;20181;-64
2021/04/06 09:14:41;;;;;;;3.35;2.60;;;4.30;99.90;;;;;;5034602;28;20186;-67
2021/04/06 09:17:08;;;;;;;3.83;2.28;;;4.40;99.90;;;;;;5035486;28;20213;-66
2021/04/06 09:19:37;;;;;;;7.03;2.60;;;4.60;99.90;;;;;;5036188;28;20292;-66
2021/04/06 09:22:07;;;;;;;6.28;3.80;;;4.80;99.90;;;;;;5035743;28;20185;-66
2021/04/06 09:24:35;;;;;;;6.85;2.80;;;4.80;99.90;;;;;;5035511;28;20631;-67
2021/04/06 09:27:03;;;;;;;5.07;3.00;;;4.90;99.90;;;;;;5034739;28;20650;-66
2021/04/06 09:29:35;;;;;;;11.90;1.95;;;4.60;99.90;;;;;;5034524;28;20196;-66
2021/04/06 09:32:06;;;;;;;5.03;1.80;;;4.30;99.90;;;;;;5034418;28;20703;-66
2021/04/06 09:34:35;;;;;;;7.68;2.88;;;4.30;99.90;;;;;;5034840;28;20329;-65
2021/04/06 09:37:06;;;;;;;4.13;1.88;;;4.40;99.90;;;;;;5035431;28;20674;-68
2021/04/06 09:39:34;;;;;;;7.25;2.47;;;4.70;99.90;;;;;;5035578;28;20178;-65
2021/04/06 09:42:03;;;;;;;3.55;2.88;;;5.20;99.90;;;;;;5034965;28;20199;-67
2021/04/06 09:44:34;;;;;;;9.32;1.67;;;5.60;99.90;;;;;;5036250;28;20669;-66
2021/04/06 09:47:04;;;;;;;3.55;1.80;;;5.80;99.90;;;;;;5036299;28;20650;-68
2021/04/06 09:49:34;;;;;;;2.38;1.83;;;5.50;99.90;;;;;;5035719;28;20261;-66
2021/04/06 09:52:04;;;;;;;7.60;3.00;;;5.40;99.90;;;;;;5035968;28;20180;-66
2021/04/06 09:54:33;;;;;;;3.80;2.88;;;5.50;99.90;;;;;;5034729;28;20227;-67
2021/04/06 09:57:02;;;;;;;6.10;1.75;;;5.50;99.90;;;;;;5034474;28;20209;-64
2021/04/06 09:59:31;;;;;;;3.80;1.55;;;5.60;99.90;;;;;;5035000;28;20189;-66
2021/04/06 10:01:59;;;;;;;4.25;1.50;;;6.00;99.90;;;;;;5035373;28;20356;-64
2021/04/06 10:04:35;;;;;;;10.45;3.50;;;6.40;99.90;;;;;;5032972;28;20182;-66
2021/04/06 10:07:10;;;;;;;3.08;2.70;;;6.20;99.90;;;;;;5035159;28;20623;-65
2021/04/06 10:09:40;;;;;;;4.28;1.20;;;6.10;99.90;;;;;;5036044;28;20184;-66
2021/04/06 10:12:10;;;;;;;5.40;2.55;;;6.00;99.90;;;;;;5034604;28;20643;-65
2021/04/06 10:14:39;;;;;;;4.38;1.67;;;6.00;99.90;;;;;;5033795;28;20212;-70
2021/04/06 10:17:09;;;;;;;3.30;1.38;;;5.80;99.90;;;;;;5035018;28;20702;-69
2021/04/06 10:19:38;;;;;;;6.13;2.00;;;5.70;99.90;;;;;;5035396;28;20185;-70
2021/04/06 10:22:09;;;;;;;6.88;3.78;;;5.70;99.90;;;;;;5032096;28;20178;-69
2021/04/06 10:24:38;;;;;;;9.88;3.00;;;5.90;99.90;;;;;;5033158;28;20185;-70
2021/04/06 10:27:08;;;;;;;5.55;2.17;;;5.60;99.90;;;;;;5035347;28;20224;-65
2021/04/06 10:29:36;;;;;;;1.70;1.40;;;5.70;99.90;;;;;;5025668;28;20621;-67
2021/04/06 10:32:05;;;;;;;3.70;1.85;;;5.80;99.90;;;;;;5018829;28;20183;-66
2021/04/06 10:34:33;;;;;;;3.80;1.70;;;6.00;99.90;;;;;;5019032;28;20190;-66
2021/04/06 10:37:03;;;;;;;3.25;1.70;;;6.20;99.90;;;;;;5016161;28;20209;-67
2021/04/06 10:39:36;;;;;;;8.98;2.60;;;6.60;99.90;;;;;;5015225;28;20663;-65
2021/04/06 10:42:04;;;;;;;4.22;2.28;;;7.20;99.90;;;;;;5014895;28;20269;-66
2021/04/06 10:44:32;;;;;;;5.40;4.05;;;7.90;99.90;;;;;;5033943;28;20666;-68
2021/04/06 10:46:59;;;;;;;2.20;1.40;;;8.00;99.90;;;;;;5035637;28;20232;-66
2021/04/06 10:49:27;;;;;;;2.95;1.45;;;7.90;99.90;;;;;;5037455;28;20602;-66
2021/04/06 10:51:58;;;;;;;2.58;1.27;;;7.90;99.90;;;;;;5036167;28;20567;-67
2021/04/06 10:54:26;;;;;;;2.90;1.40;;;7.90;99.90;;;;;;5019489;28;20177;-65
2021/04/06 10:56:55;;;;;;;2.85;1.35;;;7.90;99.90;;;;;;5035272;28;20313;-65
2021/04/06 10:59:38;;;;;;;4.65;1.17;;;8.30;99.90;;;;;;5034373;28;20185;-67
2021/04/06 11:02:05;;;;;;;2.95;1.20;;;8.40;99.90;;;;;;5032392;28;20622;-67
2021/04/06 11:04:41;;;;;;;1.40;0.80;;;8.50;99.90;;;;;;5015299;28;20190;-67
2021/04/06 11:07:09;;;;;;;4.82;1.45;;;8.60;99.90;;;;;;5031946;28;20216;-65
2021/04/06 11:09:38;;;;;;;2.00;1.80;;;8.00;99.90;;;;;;5031862;28;20170;-66
2021/04/06 11:12:08;;;;;;;2.13;1.08;;;7.70;99.90;;;;;;5014485;28;20751;-67
2021/04/06 11:14:36;;;;;;;2.15;1.30;;;7.10;99.90;;;;;;5034004;28;20182;-68
2021/04/06 11:17:05;;;;;;;3.55;1.20;;;6.90;99.90;;;;;;5033187;28;20437;-66
2021/04/06 11:19:36;;;;;;;6.03;1.65;;;6.90;99.90;;;;;;5032083;28;20643;-68
2021/04/06 11:22:06;;;;;;;9.32;1.35;;;7.30;99.90;;;;;;5033331;28;20181;-68
2021/04/06 11:24:34;;;;;;;3.47;1.83;;;7.40;99.90;;;;;;5014622;28;20647;-66
2021/04/06 11:27:04;;;;;;;2.70;2.05;;;7.60;99.90;;;;;;5032126;28;20228;-66
2021/04/06 11:29:32;;;;;;;6.18;1.38;;;7.50;99.90;;;;;;5015004;28;20236;-67
2021/04/06 11:32:02;;;;;;;7.63;1.35;;;7.10;99.90;;;;;;5032507;28;20273;-65
2021/04/06 11:34:32;;;;;;;9.20;1.15;;;7.20;99.90;;;;;;5014362;28;20182;-66
2021/04/06 11:37:01;;;;;;;3.88;1.40;;;7.30;99.90;;;;;;5033342;28;20248;-67
2021/04/06 11:39:31;;;;;;;3.90;1.58;;;6.60;99.90;;;;;;5034544;28;20248;-67
2021/04/06 11:41:59;;;;;;;1.42;1.30;;;5.30;99.90;;;;;;5036933;28;20185;-66
2021/04/06 11:44:27;;;;;;;3.95;1.88;;;4.30;99.90;;;;;;5035624;28;20684;-67
2021/04/06 11:46:54;;;;;;;2.10;1.40;;;3.30;99.90;;;;;;5033401;28;20210;-67
2021/04/06 11:49:22;;;;;;;7.18;1.90;;;2.70;99.90;;;;;;5015723;28;20186;-67
2021/04/06 11:51:50;;;;;;;4.05;1.25;;;2.80;99.90;;;;;;5033073;28;20177;-67
2021/04/06 11:54:19;;;;;;;1.42;1.17;;;3.00;99.90;;;;;;5032496;28;20173;-67
2021/04/06 11:56:47;;;;;;;1.98;1.73;;;3.40;99.90;;;;;;5031910;28;20209;-67
2021/04/06 11:59:14;;;;;;;2.38;1.20;;;3.90;99.90;;;;;;5031409;28;20208;-67
2021/04/06 12:01:43;;;;;;;2.08;1.55;;;4.40;99.90;;;;;;5031748;28;20232;-66
2021/04/06 12:04:11;;;;;;;4.10;1.50;;;4.90;99.90;;;;;;5031992;28;20205;-67
2021/04/06 12:06:38;;;;;;;1.10;0.90;;;5.40;99.90;;;;;;5032460;28;20236;-67
2021/04/06 12:09:07;;;;;;;3.53;1.55;;;5.70;99.90;;;;;;5031723;28;20292;-66
2021/04/06 12:11:36;;;;;;;2.55;1.73;;;5.80;99.90;;;;;;5032878;28;20673;-65
2021/04/06 12:14:04;;;;;;;1.92;1.00;;;6.00;99.90;;;;;;5015739;28;20177;-68
2021/04/06 12:16:31;;;;;;;2.60;1.05;;;6.20;99.90;;;;;;5032983;28;20202;-67
2021/04/06 12:18:58;;;;;;;1.65;1.50;;;6.60;99.90;;;;;;5032964;28;20181;-66
2021/04/06 12:21:26;;;;;;;1.23;0.98;;;7.00;99.90;;;;;;5034587;28;20200;-66
2021/04/06 12:23:53;;;;;;;2.55;1.60;;;7.10;99.90;;;;;;5033816;28;20658;-66
2021/04/06 12:26:21;;;;;;;2.30;1.67;;;7.60;99.90;;;;;;5034244;28;20173;-67
2021/04/06 12:28:49;;;;;;;5.38;1.25;;;8.30;99.90;;;;;;5035179;28;20185;-67
2021/04/06 12:31:16;;;;;;;1.80;0.95;;;8.80;99.90;;;;;;5020121;28;20551;-68
2021/04/06 12:33:44;;;;;;;2.33;1.05;;;9.00;99.90;;;;;;5037981;28;20174;-66
2021/04/06 12:36:12;;;;;;;2.65;1.92;;;9.20;99.90;;;;;;5039935;28;20182;-67
2021/04/06 12:38:39;;;;;;;4.60;1.50;;;8.90;99.90;;;;;;5039655;28;20493;-66
2021/04/06 12:41:07;;;;;;;2.63;1.95;;;8.60;99.90;;;;;;5039040;28;20696;-66
2021/04/06 12:43:36;;;;;;;4.57;1.05;;;8.50;99.90;;;;;;5040035;28;20224;-66
2021/04/06 12:46:04;;;;;;;3.15;0.88;;;8.00;99.90;;;;;;5039899;28;20182;-66
2021/04/06 12:48:32;;;;;;;4.70;1.83;;;7.80;99.90;;;;;;5036166;28;20178;-69
2021/04/06 12:51:00;;;;;;;4.90;1.10;;;7.50;99.90;;;;;;5036459;28;20208;-68
2021/04/06 12:53:27;;;;;;;3.35;0.95;;;7.20;99.90;;;;;;5037011;28;20177;-67
2021/04/06 12:55:55;;;;;;;2.28;1.23;;;7.00;99.90;;;;;;5018185;28;20197;-65
2021/04/06 12:58:23;;;;;;;1.70;1.05;;;7.20;99.90;;;;;;5036633;28;20717;-68
2021/04/06 13:00:50;;;;;;;3.10;0.93;;;7.30;99.90;;;;;;5037428;28;20194;-67
2021/04/06 13:03:18;;;;;;;2.88;1.85;;;7.40;99.90;;;;;;5039224;28;20221;-67
2021/04/06 13:05:45;;;;;;;2.78;0.88;;;7.40;99.90;;;;;;5017980;28;20202;-67
2021/04/06 13:08:12;;;;;;;2.75;1.33;;;7.50;99.90;;;;;;5038398;28;20240;-68
2021/04/06 13:10:40;;;;;;;2.30;1.00;;;7.50;99.90;;;;;;5039821;28;20321;-67
2021/04/06 13:13:08;;;;;;;2.55;1.70;;;7.30;99.90;;;;;;5041261;28;20197;-67